Cascade, Colorado
Current Conditions -  °F | °C
As of 10:58 AM on Friday 24 Oct 2014 (Local Time) from KAFF Reporting Station
Clear Clear  
Wind Chill: 73°   Ceiling: Unl
Heat Index: 73°   Visibility: 10mi
Dew Point: 12°   Wind: 7mph
Humidity: 10%   Direction: 130°SE
Pressure: 30.28"   Gusts: NA
Location:  38.9°N, 104.97°W
Report Text: KAFF 241658Z AUTO 13006KT 10SM CLR 23/M11 A3028 RMK AO2 SLP190 T02291109
Loading
Personal Weather Stations






























Interactive Weather Map
Tropical Storm Tracking
New forecast layout! Learn more

10-Day Weather Forecast

Advertisements
Track Severe Weather on mobile